Puropanmaru No.3 — JD3322 — position and weather

sailwx.info

Track history (hours):
 
Tides and Currents Weather Stations Pressure Air Temp Water Temp Dewpoint Dewpoint Depression Visibility Wind Speed Wind Dir Waves Ship Positions

Puropanmaru No.3

Last reported at 2014-Jul-29 00:33 UTC. Time now 2014-Jul-29 00:45 UTC.
Position N 35°29' E 139°55'.

Length 68 m; draft 4.5 m.

Type: Tanker. MMSI: 431003365.

Date/timePositionNaut miles runAvg speedWind from/ knotsBaromVisibWave heightAir tempDewpointWater temp
2014-Jul-29 00:33N 35°29' E 139°55'0 0.0
2014-Jul-28 23:33N 35°29' E 139°55'0 0.0
2014-Jul-28 22:33N 35°29' E 139°55'0 0.0
2014-Jul-28 21:33N 35°29' E 139°55'0 0.0
2014-Jul-28 20:33N 35°29' E 139°55'0 0.0
2014-Jul-28 19:33N 35°29' E 139°55'0 0.0
2014-Jul-28 18:33N 35°29' E 139°55'5 5.4
2014-Jul-28 17:33N 35°27' E 139°49'1111.4
2014-Jul-28 16:34N 35°15' E 139°47'1212.3
2014-Jul-28 15:33N 35°04' E 139°41'1413.8
2014-Jul-28 14:32N 34°56' E 139°27'357 8.5
2014-Jul-26 20:33N 34°11' E 132°17'0 0.0
2014-Jul-26 18:23N 34°11' E 132°17'0 0.1
2014-Jul-26 17:29N 34°11' E 132°17'0 0.0
2014-Jul-26 16:17N 34°11' E 132°17'2 2.5
2014-Jul-26 15:33N 34°09' E 132°19'12210.8
2014-Jul-26 04:14N 34°07' E 134°46'22111.1
2014-Jul-25 08:15N 34°50' E 139°09'1911.3
2014-Jul-25 06:33N 35°01' E 139°29'1312.5
2014-Jul-25 05:33N 35°08' E 139°42'1110.9
2014-Jul-25 04:34N 35°18' E 139°44'1111.1
2014-Jul-25 03:33N 35°28' E 139°49'1110.8
2014-Jul-25 02:33N 35°31' E 140°02'0 0.0
2014-Jul-25 01:34N 35°31' E 140°02'0 0.0
2014-Jul-25 00:33N 35°31' E 140°02'0 0.0
2014-Jul-24 23:33N 35°31' E 140°02'5 4.9
2014-Jul-24 22:33N 35°30' E 139°56'1 0.8
2014-Jul-24 21:34N 35°30' E 139°56'0 0.0
2014-Jul-24 20:33N 35°30' E 139°56'0 0.0
2014-Jul-24 19:33N 35°30' E 139°56'0 0.0
2014-Jul-24 18:33N 35°30' E 139°56'0 0.0
2014-Jul-24 17:34N 35°30' E 139°56'0 0.0
2014-Jul-24 16:34N 35°30' E 139°56'0 0.0
2014-Jul-24 15:33N 35°30' E 139°56'0 0.0
2014-Jul-24 14:34N 35°30' E 139°56'0 0.0
2014-Jul-24 13:33N 35°30' E 139°56'0 0.0
2014-Jul-24 12:34N 35°30' E 139°56'0 0.0
2014-Jul-24 11:34N 35°30' E 139°56'0 0.0
2014-Jul-24 10:33N 35°30' E 139°56'0 0.0
2014-Jul-24 09:34N 35°30' E 139°56'0 0.0
2014-Jul-24 08:33N 35°30' E 139°56'0 0.0
2014-Jul-24 07:34N 35°30' E 139°56'3 2.7
2014-Jul-24 06:34N 35°29' E 139°52'1212.4
2014-Jul-24 05:34N 35°18' E 139°45'1212.0
2014-Jul-24 04:33N 35°06' E 139°44'1313.3
2014-Jul-24 03:33N 34°58' E 139°31'1515.0
2014-Jul-24 02:33N 34°49' E 139°16'  
Track history (hours):
 
Tides and Currents Weather Stations Pressure Air Temp Water Temp Dewpoint Dewpoint Depression Visibility Wind Speed Wind Dir Waves Ship Positions

Puropanmaru No.3

Last reported at 2014-Jul-29 00:33 UTC. Time now 2014-Jul-29 00:45 UTC.
Position N 35°29' E 139°55'.

Length 68 m; draft 4.5 m.

Type: Tanker. MMSI: 431003365.

Date/timePositionNaut miles runAvg speedWind from/ knotsBaromVisibWave heightAir tempDewpointWater temp
2014-Jul-29 00:33N 35°29' E 139°55'0 0.0
2014-Jul-28 23:33N 35°29' E 139°55'0 0.0
2014-Jul-28 22:33N 35°29' E 139°55'0 0.0
2014-Jul-28 21:33N 35°29' E 139°55'0 0.0
2014-Jul-28 20:33N 35°29' E 139°55'0 0.0
2014-Jul-28 19:33N 35°29' E 139°55'0 0.0
2014-Jul-28 18:33N 35°29' E 139°55'5 5.4
2014-Jul-28 17:33N 35°27' E 139°49'1111.4
2014-Jul-28 16:34N 35°15' E 139°47'1212.3
2014-Jul-28 15:33N 35°04' E 139°41'1413.8
2014-Jul-28 14:32N 34°56' E 139°27'357 8.5
2014-Jul-26 20:33N 34°11' E 132°17'0 0.0
2014-Jul-26 18:23N 34°11' E 132°17'0 0.1
2014-Jul-26 17:29N 34°11' E 132°17'0 0.0
2014-Jul-26 16:17N 34°11' E 132°17'2 2.5
2014-Jul-26 15:33N 34°09' E 132°19'12210.8
2014-Jul-26 04:14N 34°07' E 134°46'22111.1
2014-Jul-25 08:15N 34°50' E 139°09'1911.3
2014-Jul-25 06:33N 35°01' E 139°29'1312.5
2014-Jul-25 05:33N 35°08' E 139°42'1110.9
2014-Jul-25 04:34N 35°18' E 139°44'1111.1
2014-Jul-25 03:33N 35°28' E 139°49'1110.8
2014-Jul-25 02:33N 35°31' E 140°02'0 0.0
2014-Jul-25 01:34N 35°31' E 140°02'0 0.0
2014-Jul-25 00:33N 35°31' E 140°02'0 0.0
2014-Jul-24 23:33N 35°31' E 140°02'5 4.9
2014-Jul-24 22:33N 35°30' E 139°56'1 0.8
2014-Jul-24 21:34N 35°30' E 139°56'0 0.0
2014-Jul-24 20:33N 35°30' E 139°56'0 0.0
2014-Jul-24 19:33N 35°30' E 139°56'0 0.0
2014-Jul-24 18:33N 35°30' E 139°56'0 0.0
2014-Jul-24 17:34N 35°30' E 139°56'0 0.0
2014-Jul-24 16:34N 35°30' E 139°56'0 0.0
2014-Jul-24 15:33N 35°30' E 139°56'0 0.0
2014-Jul-24 14:34N 35°30' E 139°56'0 0.0
2014-Jul-24 13:33N 35°30' E 139°56'0 0.0
2014-Jul-24 12:34N 35°30' E 139°56'0 0.0
2014-Jul-24 11:34N 35°30' E 139°56'0 0.0
2014-Jul-24 10:33N 35°30' E 139°56'0 0.0
2014-Jul-24 09:34N 35°30' E 139°56'0 0.0
2014-Jul-24 08:33N 35°30' E 139°56'0 0.0
2014-Jul-24 07:34N 35°30' E 139°56'3 2.7
2014-Jul-24 06:34N 35°29' E 139°52'1212.4
2014-Jul-24 05:34N 35°18' E 139°45'1212.0
2014-Jul-24 04:33N 35°06' E 139°44'1313.3
2014-Jul-24 03:33N 34°58' E 139°31'1515.0
2014-Jul-24 02:33N 34°49' E 139°16'  

Dump ship's entire track history